createdAt,value
2023-04-18T00:00:20.937Z,98351.16
2023-04-18T00:02:51.301Z,98357.44
2023-04-18T00:05:20.853Z,98344.09
2023-04-18T00:07:48.827Z,98352.56
2023-04-18T00:10:16.569Z,98345.75
2023-04-18T00:12:44.081Z,98352.84
2023-04-18T00:15:12.703Z,98348.41
2023-04-18T00:17:40.843Z,98331.63
2023-04-18T00:20:10.698Z,98335.63
2023-04-18T00:22:42.321Z,98334.06
2023-04-18T00:25:11.113Z,98333.31
2023-04-18T00:27:39.220Z,98330.16
2023-04-18T00:30:07.674Z,98329.75
2023-04-18T00:32:35.409Z,98317.00
2023-04-18T00:35:02.953Z,98331.03
2023-04-18T00:37:30.923Z,98317.63
2023-04-18T00:39:59.838Z,98321.66
2023-04-18T00:42:28.715Z,98323.66
2023-04-18T00:44:56.042Z,98327.53
2023-04-18T00:47:23.405Z,98314.56
2023-04-18T00:49:51.038Z,98321.13
2023-04-18T00:52:19.691Z,98320.91
2023-04-18T00:54:48.186Z,98315.78
2023-04-18T00:57:17.345Z,98318.44
2023-04-18T00:59:44.935Z,98321.09
2023-04-18T01:02:12.444Z,98313.09
2023-04-18T01:04:40.174Z,98308.72
2023-04-18T01:07:08.377Z,98316.38
2023-04-18T01:09:36.093Z,98306.13
2023-04-18T01:12:04.150Z,98306.63
2023-04-18T01:14:32.928Z,98296.31
2023-04-18T01:17:01.406Z,98303.88
2023-04-18T01:19:28.895Z,98304.13
2023-04-18T01:21:57.010Z,98309.50
2023-04-18T01:24:26.747Z,98294.06
2023-04-18T01:26:54.185Z,98298.66
2023-04-18T01:29:21.687Z,98297.88
2023-04-18T01:31:49.180Z,98294.09
2023-04-18T01:34:17.711Z,98293.28
2023-04-18T01:36:46.058Z,98299.38
2023-04-18T01:39:14.560Z,98289.06
2023-04-18T01:41:43.594Z,98295.13
2023-04-18T01:44:11.310Z,98289.16
2023-04-18T01:46:39.861Z,98292.19
2023-04-18T01:49:07.470Z,98290.16
2023-04-18T01:51:34.955Z,98288.47
2023-04-18T01:54:02.445Z,98298.78
2023-04-18T01:56:29.921Z,98292.81
2023-04-18T01:58:58.741Z,98282.44
2023-04-18T02:01:26.111Z,98282.34
2023-04-18T02:03:53.834Z,98285.00
2023-04-18T02:06:21.655Z,98285.03
2023-04-18T02:08:49.077Z,98286.53
2023-04-18T02:11:16.539Z,98281.09
2023-04-18T02:13:44.078Z,98273.19
2023-04-18T02:16:14.237Z,98281.28
2023-04-18T02:18:44.186Z,98278.16
2023-04-18T02:21:11.821Z,98281.41
2023-04-18T02:23:39.295Z,98285.56
2023-04-18T02:26:06.780Z,98291.56
2023-04-18T02:28:34.261Z,98298.16
2023-04-18T02:31:01.741Z,98281.00
2023-04-18T02:33:30.608Z,98286.84
2023-04-18T02:35:57.956Z,98287.72
2023-04-18T02:38:25.239Z,98289.50
2023-04-18T02:40:52.734Z,98290.53
2023-04-18T02:43:20.160Z,98279.94
2023-04-18T02:45:47.676Z,98294.38
2023-04-18T02:48:15.338Z,98280.41
2023-04-18T02:50:44.257Z,98289.31
2023-04-18T02:53:11.677Z,98293.84
2023-04-18T02:55:38.977Z,98285.16
2023-04-18T02:58:06.532Z,98280.47
2023-04-18T03:00:33.985Z,98282.00
2023-04-18T03:03:01.672Z,98289.78
2023-04-18T03:05:29.288Z,98295.66
2023-04-18T03:07:58.137Z,98299.03
2023-04-18T03:10:25.441Z,98301.75
2023-04-18T03:12:52.862Z,98297.91
2023-04-18T03:15:20.552Z,98304.56
2023-04-18T03:17:48.019Z,98294.97
2023-04-18T03:20:15.701Z,98297.78
2023-04-18T03:22:43.197Z,98293.34
2023-04-18T03:25:12.134Z,98286.19
2023-04-18T03:27:39.570Z,98288.31
2023-04-18T03:30:08.221Z,98297.97
2023-04-18T03:32:36.207Z,98288.28
2023-04-18T03:35:04.071Z,98297.16
2023-04-18T03:37:31.550Z,98288.47
2023-04-18T03:39:59.054Z,98297.22
2023-04-18T03:42:27.820Z,98294.34
2023-04-18T03:44:55.242Z,98281.69
2023-04-18T03:47:22.887Z,98290.81
2023-04-18T03:49:50.578Z,98295.88
2023-04-18T03:52:20.022Z,98291.50
2023-04-18T03:54:47.487Z,98296.00
2023-04-18T03:57:15.039Z,98290.16
2023-04-18T03:59:45.173Z,98299.38
2023-04-18T04:02:14.300Z,98297.81
2023-04-18T04:04:41.864Z,98294.22
2023-04-18T04:07:09.515Z,98296.56
2023-04-18T04:09:36.971Z,98302.25
2023-04-18T04:12:04.633Z,98300.81
2023-04-18T04:14:32.342Z,98301.84
2023-04-18T04:17:01.307Z,98289.81
2023-04-18T04:19:28.795Z,98299.72
2023-04-18T04:21:56.229Z,98307.31
2023-04-18T04:24:23.653Z,98309.88
2023-04-18T04:26:51.303Z,98316.25
2023-04-18T04:29:19.004Z,98312.16
2023-04-18T04:31:46.493Z,98299.59
2023-04-18T04:34:16.620Z,98305.41
2023-04-18T04:36:44.482Z,98309.25
2023-04-18T04:39:12.748Z,98314.84
2023-04-18T04:41:40.589Z,98322.56
2023-04-18T04:44:09.433Z,98329.66
2023-04-18T04:46:39.394Z,98325.91
2023-04-18T04:49:06.884Z,98321.78
2023-04-18T04:51:35.810Z,98325.91
2023-04-18T04:54:03.126Z,98329.72
2023-04-18T04:56:30.463Z,98329.88
2023-04-18T04:58:57.920Z,98335.53
2023-04-18T05:01:25.648Z,98328.94
2023-04-18T05:03:53.315Z,98316.06
2023-04-18T05:06:22.570Z,98331.28
2023-04-18T05:08:51.844Z,98335.88
2023-04-18T05:11:19.422Z,98331.94
2023-04-18T05:13:46.899Z,98334.19
2023-04-18T05:16:14.494Z,98343.78
2023-04-18T05:18:42.059Z,98337.50
2023-04-18T05:21:09.538Z,98334.06
2023-04-18T05:23:37.184Z,98340.16
2023-04-18T05:26:06.447Z,98337.78
2023-04-18T05:28:34.022Z,98343.66
2023-04-18T05:31:02.057Z,98346.31
2023-04-18T05:33:29.617Z,98345.53
2023-04-18T05:35:57.386Z,98351.56
2023-04-18T05:38:25.017Z,98347.25
2023-04-18T05:40:55.333Z,98345.28
2023-04-18T05:43:24.337Z,98350.94
2023-04-18T05:45:52.828Z,98357.69
2023-04-18T05:48:21.545Z,98346.41
2023-04-18T05:50:48.969Z,98346.53
2023-04-18T05:53:16.674Z,98348.94
2023-04-18T05:55:46.348Z,98341.59
2023-04-18T05:58:13.835Z,98342.81
2023-04-18T06:00:42.779Z,98358.13
2023-04-18T06:03:11.302Z,98348.13
2023-04-18T06:05:40.887Z,98365.94
2023-04-18T06:08:08.440Z,98367.25
2023-04-18T06:10:38.889Z,98368.78
2023-04-18T06:13:06.632Z,98368.28
2023-04-18T06:15:35.219Z,98362.41
2023-04-18T06:18:04.170Z,98358.63
2023-04-18T06:20:31.665Z,98363.72
2023-04-18T06:22:59.165Z,98367.25
2023-04-18T06:25:26.632Z,98367.50
2023-04-18T06:27:54.122Z,98367.03
2023-04-18T06:30:22.258Z,98374.56
2023-04-18T06:32:49.898Z,98362.28
2023-04-18T06:35:18.971Z,98361.47
2023-04-18T06:37:46.708Z,98370.38
2023-04-18T06:40:14.804Z,98368.38
2023-04-18T06:42:43.195Z,98378.38
2023-04-18T06:45:11.960Z,98377.53
2023-04-18T06:47:39.567Z,98369.94
2023-04-18T06:50:08.411Z,98374.91
2023-04-18T06:52:40.432Z,98378.78
2023-04-18T06:55:09.012Z,98375.03
2023-04-18T06:57:36.531Z,98369.88
2023-04-18T07:00:04.801Z,98366.88
2023-04-18T07:02:32.541Z,98367.03
2023-04-18T07:05:00.192Z,98373.91
2023-04-18T07:07:27.735Z,98374.88
2023-04-18T07:09:56.611Z,98387.41
2023-04-18T07:12:24.100Z,98389.75
2023-04-18T07:14:51.836Z,98390.44
2023-04-18T07:17:19.439Z,98381.72
2023-04-18T07:19:46.952Z,98386.72
2023-04-18T07:22:14.442Z,98381.81
2023-04-18T07:24:42.127Z,98378.09
2023-04-18T07:27:10.948Z,98381.53
2023-04-18T07:29:38.444Z,98372.22
2023-04-18T07:32:08.120Z,98382.69
2023-04-18T07:34:37.381Z,98375.31
2023-04-18T07:37:04.941Z,98374.81
2023-04-18T07:39:35.785Z,98381.69
2023-04-18T07:42:04.065Z,98388.03
2023-04-18T07:44:35.827Z,98383.41
2023-04-18T07:47:03.509Z,98375.78
2023-04-18T07:49:31.184Z,98374.63
2023-04-18T07:51:58.658Z,98371.78
2023-04-18T07:54:26.181Z,98382.25
2023-04-18T07:56:53.820Z,98379.38
2023-04-18T07:59:21.289Z,98375.94
2023-04-18T08:01:50.077Z,98378.81
2023-04-18T08:04:17.797Z,98382.31
2023-04-18T08:06:45.484Z,98383.16
2023-04-18T08:09:13.242Z,98378.94
2023-04-18T08:11:43.310Z,98376.63
2023-04-18T08:14:10.989Z,98385.41
2023-04-18T08:16:38.549Z,98379.44
2023-04-18T08:19:07.465Z,98376.50
2023-04-18T08:21:34.926Z,98376.16
2023-04-18T08:24:02.383Z,98369.41
2023-04-18T08:26:29.858Z,98363.69
2023-04-18T08:28:57.644Z,98377.03
2023-04-18T08:31:25.130Z,98381.69
2023-04-18T08:33:52.638Z,98382.47
2023-04-18T08:36:21.885Z,98384.97
2023-04-18T08:38:49.346Z,98385.91
2023-04-18T08:41:21.719Z,98389.50
2023-04-18T08:43:49.751Z,98386.13
2023-04-18T08:46:17.453Z,98386.16
2023-04-18T08:48:46.677Z,98374.28
2023-04-18T08:51:14.163Z,98380.72
2023-04-18T08:53:45.001Z,98374.06
2023-04-18T08:56:14.587Z,98378.16
2023-04-18T08:58:42.080Z,98377.47
2023-04-18T09:01:10.128Z,98371.88
2023-04-18T09:03:39.988Z,98379.16
2023-04-18T09:06:12.499Z,98384.34
2023-04-18T09:08:43.673Z,98381.91
2023-04-18T09:11:28.789Z,98384.22
2023-04-18T09:13:58.552Z,98387.56
2023-04-18T09:16:27.487Z,98395.44
2023-04-18T09:19:10.820Z,98396.19
2023-04-18T09:21:40.720Z,98397.97
2023-04-18T09:24:20.727Z,98393.28
2023-04-18T09:26:49.775Z,98377.66
2023-04-18T09:29:18.441Z,98377.00
2023-04-18T09:31:59.698Z,98374.50
2023-04-18T09:34:27.774Z,98381.81
2023-04-18T09:37:09.349Z,98375.16
2023-04-18T09:39:39.887Z,98379.59
2023-04-18T09:42:08.343Z,98369.47
2023-04-18T09:44:35.849Z,98371.16
2023-04-18T09:47:03.379Z,98383.75
2023-04-18T09:49:30.917Z,98379.31
2023-04-18T09:51:59.010Z,98373.31
2023-04-18T09:54:26.804Z,98373.66
2023-04-18T09:56:56.516Z,98375.88
2023-04-18T09:59:34.909Z,98373.56
2023-04-18T10:02:06.707Z,98377.31
2023-04-18T10:04:35.482Z,98381.22
2023-04-18T10:07:03.533Z,98373.53
2023-04-18T10:09:33.728Z,98372.34
2023-04-18T10:12:03.382Z,98372.31
2023-04-18T10:14:34.689Z,98370.75
2023-04-18T10:17:02.317Z,98374.38
2023-04-18T10:19:30.856Z,98373.16
2023-04-18T10:22:00.395Z,98382.25
2023-04-18T10:24:46.930Z,98375.25
2023-04-18T10:27:16.175Z,98368.19
2023-04-18T10:29:51.972Z,98370.13
2023-04-18T10:32:20.853Z,98368.94
2023-04-18T10:34:48.584Z,98366.91
2023-04-18T10:37:18.722Z,98367.00
2023-04-18T10:40:05.631Z,98362.94
2023-04-18T10:43:02.571Z,98367.28
2023-04-18T10:45:36.151Z,98368.00
2023-04-18T10:48:23.719Z,98370.06
2023-04-18T10:51:14.012Z,98368.66
2023-04-18T10:53:47.748Z,98360.56
2023-04-18T10:56:16.470Z,98365.22
2023-04-18T10:58:49.694Z,98359.13
2023-04-18T11:01:19.594Z,98358.47
2023-04-18T11:03:47.204Z,98358.94
2023-04-18T11:06:14.779Z,98359.78
2023-04-18T11:08:42.463Z,98349.78
2023-04-18T11:11:11.284Z,98350.63
2023-04-18T11:13:38.813Z,98357.38
2023-04-18T11:16:08.580Z,98355.34
2023-04-18T11:18:42.325Z,98355.06
2023-04-18T11:21:09.832Z,98345.25
2023-04-18T11:23:38.545Z,98343.38
2023-04-18T11:26:07.422Z,98347.22
2023-04-18T11:28:34.864Z,98343.94
2023-04-18T11:31:02.967Z,98336.72
2023-04-18T11:33:32.097Z,98336.00
2023-04-18T11:35:59.832Z,98333.81
2023-04-18T11:38:30.492Z,98333.03
2023-04-18T11:40:58.192Z,98339.13
2023-04-18T11:43:26.446Z,98336.28
2023-04-18T11:45:54.968Z,98331.34
2023-04-18T11:48:22.687Z,98328.66
2023-04-18T11:50:51.977Z,98324.53
2023-04-18T11:53:32.921Z,98336.19
2023-04-18T11:56:00.536Z,98333.06
2023-04-18T11:58:32.697Z,98329.28
2023-04-18T12:01:00.594Z,98327.97
2023-04-18T12:03:29.098Z,98324.41
2023-04-18T12:06:01.390Z,98315.84
2023-04-18T12:08:29.001Z,98319.41
2023-04-18T12:10:56.629Z,98326.91
2023-04-18T12:13:32.212Z,98333.38
2023-04-18T12:16:03.181Z,98330.19
2023-04-18T12:18:31.337Z,98324.75
2023-04-18T12:21:02.341Z,98331.66
2023-04-18T12:23:32.729Z,98322.78
2023-04-18T12:26:01.976Z,98321.88
2023-04-18T12:28:29.538Z,98317.56
2023-04-18T12:30:57.236Z,98320.75
2023-04-18T12:33:24.748Z,98309.44
2023-04-18T12:35:53.182Z,98319.41
2023-04-18T12:38:20.969Z,98310.25
2023-04-18T12:40:50.195Z,98313.50
2023-04-18T12:43:17.811Z,98309.69
2023-04-18T12:45:46.461Z,98315.94
2023-04-18T12:48:14.111Z,98315.91
2023-04-18T12:50:41.605Z,98307.91
2023-04-18T12:53:09.056Z,98308.97
2023-04-18T12:55:37.542Z,98303.22
2023-04-18T12:58:06.329Z,98307.38
2023-04-18T13:00:34.023Z,98306.81
2023-04-18T13:03:01.614Z,98309.28
2023-04-18T13:05:33.529Z,98305.84
2023-04-18T13:08:15.173Z,98308.72
2023-04-18T13:10:44.229Z,98307.53
2023-04-18T13:13:13.260Z,98315.50
2023-04-18T13:15:41.049Z,98304.38
2023-04-18T13:18:08.611Z,98300.03
2023-04-18T13:20:36.630Z,98312.81
2023-04-18T13:23:04.466Z,98318.16
2023-04-18T13:25:32.284Z,98308.84
2023-04-18T13:28:00.776Z,98303.47
2023-04-18T13:30:30.089Z,98305.53
2023-04-18T13:32:57.644Z,98301.00
2023-04-18T13:35:25.152Z,98313.56
2023-04-18T13:37:52.650Z,98313.56
2023-04-18T13:40:20.303Z,98303.72
2023-04-18T13:42:47.745Z,98313.03
2023-04-18T13:45:15.468Z,98315.97
2023-04-18T13:47:44.321Z,98308.47
2023-04-18T13:50:11.924Z,98314.69
2023-04-18T13:52:39.380Z,98310.50
2023-04-18T13:55:08.190Z,98316.66
2023-04-18T13:57:37.206Z,98313.09
2023-04-18T14:00:09.044Z,98313.66
2023-04-18T14:02:36.880Z,98321.72
2023-04-18T14:05:06.894Z,98311.97
2023-04-18T14:07:34.446Z,98320.59
2023-04-18T14:10:02.043Z,98322.94
2023-04-18T14:12:29.635Z,98330.34
2023-04-18T14:14:57.078Z,98323.28
2023-04-18T14:17:24.574Z,98326.44
2023-04-18T14:19:52.061Z,98327.94
2023-04-18T14:22:21.019Z,98327.59
2023-04-18T14:24:52.121Z,98336.44
2023-04-18T14:27:19.573Z,98333.38
2023-04-18T14:29:48.745Z,98333.41
2023-04-18T14:32:16.230Z,98329.66
2023-04-18T14:34:43.737Z,98327.03
2023-04-18T14:37:11.257Z,98331.53
2023-04-18T14:39:40.080Z,98330.72
2023-04-18T14:42:07.564Z,98328.63
2023-04-18T14:44:34.999Z,98326.09
2023-04-18T14:47:02.703Z,98328.59
2023-04-18T14:49:30.181Z,98334.53
2023-04-18T14:51:57.618Z,98332.09
2023-04-18T14:54:25.055Z,98337.41
2023-04-18T14:56:53.852Z,98326.41
2023-04-18T14:59:21.341Z,98334.72
2023-04-18T15:01:48.983Z,98335.53
2023-04-18T15:04:16.737Z,98336.75
2023-04-18T15:06:44.574Z,98339.16
2023-04-18T15:09:12.010Z,98338.31
2023-04-18T15:11:39.434Z,98334.13
2023-04-18T15:14:10.147Z,98340.59
2023-04-18T15:16:39.699Z,98348.09
2023-04-18T15:19:07.437Z,98341.59
2023-04-18T15:21:34.885Z,98342.00
2023-04-18T15:24:02.365Z,98340.97
2023-04-18T15:26:32.324Z,98342.19
2023-04-18T15:29:02.579Z,98348.28
2023-04-18T15:31:31.517Z,98353.56
2023-04-18T15:33:59.342Z,98350.41
2023-04-18T15:36:27.627Z,98348.38
2023-04-18T15:38:55.285Z,98356.06
2023-04-18T15:41:23.123Z,98354.31
2023-04-18T15:43:50.631Z,98353.84
2023-04-18T15:46:18.134Z,98352.38
2023-04-18T15:48:46.960Z,98352.47
2023-04-18T15:51:14.538Z,98354.22
2023-04-18T15:53:41.992Z,98357.38
2023-04-18T15:56:09.780Z,98356.75
2023-04-18T15:58:37.251Z,98359.78
2023-04-18T16:01:06.152Z,98354.59
2023-04-18T16:03:33.823Z,98361.91
2023-04-18T16:06:02.848Z,98358.09
2023-04-18T16:08:32.618Z,98371.69
2023-04-18T16:11:00.700Z,98362.91
2023-04-18T16:13:28.161Z,98365.22
2023-04-18T16:15:55.636Z,98366.59
2023-04-18T16:18:23.217Z,98371.34
2023-04-18T16:20:51.671Z,98372.44
2023-04-18T16:23:21.055Z,98373.00
2023-04-18T16:25:49.294Z,98373.00
2023-04-18T16:28:16.818Z,98372.84
2023-04-18T16:30:45.627Z,98388.75
2023-04-18T16:33:13.278Z,98379.69
2023-04-18T16:35:40.977Z,98390.72
2023-04-18T16:38:08.597Z,98387.22
2023-04-18T16:40:37.882Z,98387.88
2023-04-18T16:43:05.406Z,98392.94
2023-04-18T16:45:33.512Z,98393.31
2023-04-18T16:48:01.070Z,98403.59
2023-04-18T16:50:28.631Z,98399.91
2023-04-18T16:52:56.080Z,98401.81
2023-04-18T16:55:23.697Z,98404.97
2023-04-18T16:57:52.502Z,98410.56
2023-04-18T17:00:20.087Z,98406.97
2023-04-18T17:02:48.163Z,98408.69
2023-04-18T17:05:15.683Z,98420.25
2023-04-18T17:07:44.919Z,98410.75
2023-04-18T17:10:12.711Z,98424.47
2023-04-18T17:12:40.214Z,98422.22
2023-04-18T17:15:09.667Z,98423.44
2023-04-18T17:17:37.217Z,98421.06
2023-04-18T17:20:07.186Z,98426.53
2023-04-18T17:22:35.395Z,98422.69
2023-04-18T17:25:03.192Z,98425.91
2023-04-18T17:27:30.925Z,98429.16
2023-04-18T17:30:00.767Z,98438.19
2023-04-18T17:32:29.672Z,98423.69
2023-04-18T17:34:57.196Z,98427.59
2023-04-18T17:37:24.633Z,98432.53
2023-04-18T17:39:52.075Z,98425.72
2023-04-18T17:42:20.994Z,98437.66
2023-04-18T17:44:48.444Z,98430.75
2023-04-18T17:47:18.016Z,98439.91
2023-04-18T17:49:46.841Z,98436.47
2023-04-18T17:52:14.395Z,98444.03
2023-04-18T17:54:41.914Z,98444.50
2023-04-18T17:57:09.353Z,98449.78
2023-04-18T17:59:37.656Z,98445.38
2023-04-18T18:02:05.521Z,98450.91
2023-04-18T18:04:33.142Z,98444.03
2023-04-18T18:07:02.036Z,98448.75
2023-04-18T18:09:29.600Z,98445.78
2023-04-18T18:11:57.316Z,98451.50
2023-04-18T18:14:24.858Z,98457.34
2023-04-18T18:16:52.440Z,98460.81
2023-04-18T18:19:20.839Z,98454.91
2023-04-18T18:21:48.349Z,98463.41
2023-04-18T18:24:18.549Z,98473.59
2023-04-18T18:26:46.120Z,98477.28
2023-04-18T18:29:13.806Z,98486.97
2023-04-18T18:31:42.477Z,98479.44
2023-04-18T18:34:10.077Z,98486.84
2023-04-18T18:36:37.744Z,98489.03
2023-04-18T18:39:06.432Z,98491.72
2023-04-18T18:41:35.453Z,98490.50
2023-04-18T18:44:02.936Z,98491.50
2023-04-18T18:46:30.894Z,98494.53
2023-04-18T18:48:58.506Z,98497.22
2023-04-18T18:51:26.169Z,98505.72
2023-04-18T18:53:53.632Z,98507.41
2023-04-18T18:56:21.148Z,98501.38
2023-04-18T18:58:49.919Z,98512.59
2023-04-18T19:01:17.442Z,98502.53
2023-04-18T19:03:45.026Z,98511.06
2023-04-18T19:06:12.604Z,98509.72
2023-04-18T19:08:40.200Z,98511.25
2023-04-18T19:11:07.935Z,98515.56
2023-04-18T19:13:35.466Z,98514.25
2023-04-18T19:16:04.333Z,98516.41
2023-04-18T19:18:31.889Z,98521.97
2023-04-18T19:20:59.452Z,98529.44
2023-04-18T19:23:27.749Z,98522.97
2023-04-18T19:25:55.216Z,98518.47
2023-04-18T19:28:22.858Z,98519.09
2023-04-18T19:30:50.789Z,98520.09
2023-04-18T19:33:20.421Z,98521.28
2023-04-18T19:35:47.986Z,98529.13
2023-04-18T19:38:15.555Z,98526.78
2023-04-18T19:40:43.064Z,98527.13
2023-04-18T19:43:10.536Z,98526.25
2023-04-18T19:45:41.512Z,98531.13
2023-04-18T19:48:09.000Z,98531.31
2023-04-18T19:50:39.850Z,98533.16
2023-04-18T19:53:07.404Z,98535.63
2023-04-18T19:55:34.893Z,98538.31
2023-04-18T19:58:02.364Z,98540.50
2023-04-18T20:00:30.109Z,98539.97
2023-04-18T20:02:58.707Z,98538.84
2023-04-18T20:05:26.284Z,98538.50
2023-04-18T20:07:55.184Z,98535.16
2023-04-18T20:10:25.906Z,98536.31
2023-04-18T20:12:53.330Z,98535.47
2023-04-18T20:15:20.970Z,98531.78
2023-04-18T20:17:48.616Z,98530.97
2023-04-18T20:20:16.144Z,98530.13
2023-04-18T20:22:44.675Z,98525.97
2023-04-18T20:25:13.532Z,98535.13
2023-04-18T20:27:41.059Z,98536.16
2023-04-18T20:30:09.417Z,98533.63
2023-04-18T20:32:37.037Z,98533.63
2023-04-18T20:35:05.162Z,98539.09
2023-04-18T20:37:36.401Z,98533.13
2023-04-18T20:40:07.842Z,98530.63
2023-04-18T20:42:38.581Z,98532.97
2023-04-18T20:45:10.999Z,98530.00
2023-04-18T20:47:41.120Z,98530.28
2023-04-18T20:50:09.679Z,98527.16
2023-04-18T20:52:37.335Z,98529.78
2023-04-18T20:55:05.474Z,98534.63
2023-04-18T20:57:32.907Z,98530.25
2023-04-18T21:00:01.976Z,98532.16
2023-04-18T21:02:29.721Z,98530.59
2023-04-18T21:04:59.552Z,98532.78
2023-04-18T21:07:27.332Z,98532.78
2023-04-18T21:09:54.834Z,98521.47
2023-04-18T21:12:22.275Z,98527.91
2023-04-18T21:14:49.866Z,98528.59
2023-04-18T21:17:18.859Z,98518.88
2023-04-18T21:19:46.403Z,98525.13
2023-04-18T21:22:14.608Z,98527.31
2023-04-18T21:24:42.166Z,98526.50
2023-04-18T21:27:10.833Z,98523.59
2023-04-18T21:29:38.303Z,98526.78
2023-04-18T21:32:06.148Z,98525.63
2023-04-18T21:34:34.988Z,98533.91
2023-04-18T21:37:02.481Z,98527.84
2023-04-18T21:39:29.960Z,98525.78
2023-04-18T21:41:57.473Z,98522.56
2023-04-18T21:44:24.945Z,98525.75
2023-04-18T21:46:52.404Z,98518.41
2023-04-18T21:49:20.153Z,98510.53
2023-04-18T21:51:49.761Z,98521.69
2023-04-18T21:54:17.341Z,98520.25
2023-04-18T21:56:44.774Z,98512.59
2023-04-18T21:59:14.172Z,98513.06
2023-04-18T22:01:41.697Z,98515.91
2023-04-18T22:04:09.301Z,98513.25
2023-04-18T22:06:36.954Z,98515.28
2023-04-18T22:09:06.197Z,98520.13
2023-04-18T22:11:33.661Z,98512.22
2023-04-18T22:14:03.694Z,98516.91
2023-04-18T22:16:31.185Z,98511.56
2023-04-18T22:18:58.629Z,98508.16
2023-04-18T22:21:26.349Z,98504.13
2023-04-18T22:23:53.911Z,98506.53
2023-04-18T22:26:22.734Z,98503.22
2023-04-18T22:28:50.190Z,98504.91
2023-04-18T22:31:17.772Z,98507.28
2023-04-18T22:33:47.486Z,98509.16
2023-04-18T22:36:15.012Z,98503.19
2023-04-18T22:38:42.455Z,98504.66
2023-04-18T22:41:09.893Z,98510.09
2023-04-18T22:43:38.665Z,98507.22
2023-04-18T22:46:06.082Z,98505.94
2023-04-18T22:48:34.965Z,98508.88
2023-04-18T22:51:02.658Z,98515.91
2023-04-18T22:53:30.130Z,98509.22
2023-04-18T22:55:58.073Z,98508.78
2023-04-18T22:58:25.660Z,98507.69
2023-04-18T23:00:54.619Z,98504.19
2023-04-18T23:03:22.402Z,98504.56
2023-04-18T23:05:49.979Z,98508.84
2023-04-18T23:08:18.628Z,98506.41
2023-04-18T23:10:46.132Z,98503.88
2023-04-18T23:13:14.106Z,98508.56
2023-04-18T23:15:41.573Z,98504.03
2023-04-18T23:18:10.406Z,98505.00
2023-04-18T23:20:37.831Z,98501.50
2023-04-18T23:23:05.844Z,98507.56
2023-04-18T23:25:34.103Z,98502.19
2023-04-18T23:28:01.644Z,98503.41
2023-04-18T23:30:29.236Z,98505.41
2023-04-18T23:32:56.805Z,98495.66
2023-04-18T23:35:25.592Z,98493.75
2023-04-18T23:37:57.025Z,98498.34
2023-04-18T23:40:24.647Z,98492.69
2023-04-18T23:42:52.110Z,98504.44
2023-04-18T23:45:19.631Z,98492.03
2023-04-18T23:47:47.185Z,98495.88
2023-04-18T23:50:14.638Z,98481.31
2023-04-18T23:52:43.642Z,98492.69
2023-04-18T23:55:11.191Z,98479.44
2023-04-18T23:57:38.643Z,98489.31
